sensor_id;sensor_type;location;lat;lon;timestamp;P1;durP1;ratioP1;P2;durP2;ratioP2
20298;SDS011;10308;42.688;23.256;2024-02-21T00:02:03;5.22;;;4.82;;
20298;SDS011;10308;42.688;23.256;2024-02-21T00:04:31;5.22;;;4.82;;
20298;SDS011;10308;42.688;23.256;2024-02-21T00:06:58;5.25;;;4.85;;
20298;SDS011;10308;42.688;23.256;2024-02-21T00:09:28;5.60;;;5.20;;
20298;SDS011;10308;42.688;23.256;2024-02-21T00:11:55;5.00;;;4.60;;
20298;SDS011;10308;42.688;23.256;2024-02-21T00:14:27;5.40;;;5.00;;
20298;SDS011;10308;42.688;23.256;2024-02-21T00:16:54;5.50;;;5.10;;
20298;SDS011;10308;42.688;23.256;2024-02-21T00:19:22;5.00;;;4.70;;
20298;SDS011;10308;42.688;23.256;2024-02-21T00:21:51;5.20;;;4.80;;
20298;SDS011;10308;42.688;23.256;2024-02-21T00:24:19;5.40;;;5.00;;
20298;SDS011;10308;42.688;23.256;2024-02-21T00:26:50;5.18;;;4.78;;
20298;SDS011;10308;42.688;23.256;2024-02-21T00:29:18;5.07;;;4.68;;
20298;SDS011;10308;42.688;23.256;2024-02-21T00:31:46;5.35;;;4.85;;
20298;SDS011;10308;42.688;23.256;2024-02-21T00:34:13;5.13;;;4.82;;
20298;SDS011;10308;42.688;23.256;2024-02-21T00:36:40;5.22;;;4.82;;
20298;SDS011;10308;42.688;23.256;2024-02-21T00:39:08;5.20;;;4.80;;
20298;SDS011;10308;42.688;23.256;2024-02-21T00:41:35;5.25;;;4.85;;
20298;SDS011;10308;42.688;23.256;2024-02-21T00:44:04;5.50;;;5.10;;
20298;SDS011;10308;42.688;23.256;2024-02-21T00:46:35;5.40;;;5.00;;
20298;SDS011;10308;42.688;23.256;2024-02-21T00:49:06;5.50;;;5.10;;
20298;SDS011;10308;42.688;23.256;2024-02-21T00:51:33;4.72;;;4.32;;
20298;SDS011;10308;42.688;23.256;2024-02-21T00:54:01;4.82;;;4.43;;
20298;SDS011;10308;42.688;23.256;2024-02-21T00:56:28;4.88;;;4.57;;
20298;SDS011;10308;42.688;23.256;2024-02-21T00:58:57;5.22;;;4.82;;
20298;SDS011;10308;42.688;23.256;2024-02-21T01:01:26;4.80;;;4.50;;
20298;SDS011;10308;42.688;23.256;2024-02-21T01:03:54;4.97;;;4.57;;
20298;SDS011;10308;42.688;23.256;2024-02-21T01:06:21;4.68;;;4.30;;
20298;SDS011;10308;42.688;23.256;2024-02-21T01:08:50;4.97;;;4.57;;
20298;SDS011;10308;42.688;23.256;2024-02-21T01:11:17;4.95;;;4.55;;
20298;SDS011;10308;42.688;23.256;2024-02-21T01:13:45;5.15;;;4.75;;
20298;SDS011;10308;42.688;23.256;2024-02-21T01:16:12;4.72;;;4.43;;
20298;SDS011;10308;42.688;23.256;2024-02-21T01:18:45;5.07;;;4.68;;
20298;SDS011;10308;42.688;23.256;2024-02-21T01:21:12;5.20;;;4.80;;
20298;SDS011;10308;42.688;23.256;2024-02-21T01:23:40;5.93;;;5.45;;
20298;SDS011;10308;42.688;23.256;2024-02-21T01:26:07;5.50;;;5.10;;
20298;SDS011;10308;42.688;23.256;2024-02-21T01:28:39;5.15;;;4.75;;
20298;SDS011;10308;42.688;23.256;2024-02-21T01:31:06;5.70;;;5.20;;
20298;SDS011;10308;42.688;23.256;2024-02-21T01:33:35;5.00;;;4.63;;
20298;SDS011;10308;42.688;23.256;2024-02-21T01:36:06;5.07;;;4.68;;
20298;SDS011;10308;42.688;23.256;2024-02-21T01:38:35;4.75;;;4.45;;
20298;SDS011;10308;42.688;23.256;2024-02-21T01:41:02;4.70;;;4.30;;
20298;SDS011;10308;42.688;23.256;2024-02-21T01:43:30;4.60;;;4.30;;
20298;SDS011;10308;42.688;23.256;2024-02-21T01:45:58;4.55;;;4.25;;
20298;SDS011;10308;42.688;23.256;2024-02-21T01:48:26;4.50;;;4.20;;
20298;SDS011;10308;42.688;23.256;2024-02-21T01:50:56;5.05;;;4.65;;
20298;SDS011;10308;42.688;23.256;2024-02-21T01:53:27;5.30;;;5.00;;
20298;SDS011;10308;42.688;23.256;2024-02-21T01:55:59;6.00;;;5.60;;
20298;SDS011;10308;42.688;23.256;2024-02-21T01:58:28;5.60;;;5.10;;
20298;SDS011;10308;42.688;23.256;2024-02-21T02:00:56;6.47;;;5.97;;
20298;SDS011;10308;42.688;23.256;2024-02-21T02:03:25;6.35;;;5.85;;
20298;SDS011;10308;42.688;23.256;2024-02-21T02:05:54;6.60;;;6.13;;
20298;SDS011;10308;42.688;23.256;2024-02-21T02:08:22;6.47;;;5.97;;
20298;SDS011;10308;42.688;23.256;2024-02-21T02:10:50;6.63;;;6.13;;
20298;SDS011;10308;42.688;23.256;2024-02-21T02:13:18;7.25;;;6.75;;
20298;SDS011;10308;42.688;23.256;2024-02-21T02:15:45;6.70;;;6.20;;
20298;SDS011;10308;42.688;23.256;2024-02-21T02:18:14;7.30;;;6.70;;
20298;SDS011;10308;42.688;23.256;2024-02-21T02:20:44;7.70;;;7.10;;
20298;SDS011;10308;42.688;23.256;2024-02-21T02:25:47;8.32;;;7.63;;
20298;SDS011;10308;42.688;23.256;2024-02-21T02:28:17;8.48;;;7.78;;
20298;SDS011;10308;42.688;23.256;2024-02-21T02:30:45;8.15;;;7.45;;
20298;SDS011;10308;42.688;23.256;2024-02-21T02:33:13;8.00;;;7.40;;
20298;SDS011;10308;42.688;23.256;2024-02-21T02:35:42;8.07;;;7.47;;
20298;SDS011;10308;42.688;23.256;2024-02-21T02:38:11;8.15;;;7.55;;
20298;SDS011;10308;42.688;23.256;2024-02-21T02:40:40;8.20;;;7.60;;
20298;SDS011;10308;42.688;23.256;2024-02-21T02:43:09;7.88;;;7.28;;
20298;SDS011;10308;42.688;23.256;2024-02-21T02:45:36;8.60;;;7.93;;
20298;SDS011;10308;42.688;23.256;2024-02-21T02:48:04;8.15;;;7.55;;
20298;SDS011;10308;42.688;23.256;2024-02-21T02:50:34;8.25;;;7.55;;
20298;SDS011;10308;42.688;23.256;2024-02-21T02:53:02;8.70;;;8.00;;
20298;SDS011;10308;42.688;23.256;2024-02-21T02:55:29;9.02;;;8.32;;
20298;SDS011;10308;42.688;23.256;2024-02-21T02:58:00;8.02;;;7.40;;
20298;SDS011;10308;42.688;23.256;2024-02-21T03:00:28;8.57;;;7.88;;
20298;SDS011;10308;42.688;23.256;2024-02-21T03:02:57;8.65;;;7.95;;
20298;SDS011;10308;42.688;23.256;2024-02-21T03:05:24;8.10;;;7.50;;
20298;SDS011;10308;42.688;23.256;2024-02-21T03:07:52;8.30;;;7.63;;
20298;SDS011;10308;42.688;23.256;2024-02-21T03:10:20;8.38;;;7.78;;
20298;SDS011;10308;42.688;23.256;2024-02-21T03:12:49;8.10;;;7.50;;
20298;SDS011;10308;42.688;23.256;2024-02-21T03:15:20;8.02;;;7.43;;
20298;SDS011;10308;42.688;23.256;2024-02-21T03:17:48;8.23;;;7.63;;
20298;SDS011;10308;42.688;23.256;2024-02-21T03:20:15;8.68;;;7.97;;
20298;SDS011;10308;42.688;23.256;2024-02-21T03:22:45;8.65;;;7.95;;
20298;SDS011;10308;42.688;23.256;2024-02-21T03:25:12;8.82;;;8.13;;
20298;SDS011;10308;42.688;23.256;2024-02-21T03:27:43;8.77;;;8.02;;
20298;SDS011;10308;42.688;23.256;2024-02-21T03:30:10;8.48;;;7.75;;
20298;SDS011;10308;42.688;23.256;2024-02-21T03:32:39;8.82;;;8.13;;
20298;SDS011;10308;42.688;23.256;2024-02-21T03:35:06;8.77;;;8.07;;
20298;SDS011;10308;42.688;23.256;2024-02-21T03:37:35;10.27;;;9.48;;
20298;SDS011;10308;42.688;23.256;2024-02-21T03:40:02;9.98;;;9.18;;
20298;SDS011;10308;42.688;23.256;2024-02-21T03:42:34;8.50;;;7.80;;
20298;SDS011;10308;42.688;23.256;2024-02-21T03:45:01;9.02;;;8.32;;
20298;SDS011;10308;42.688;23.256;2024-02-21T03:47:30;9.57;;;8.77;;
20298;SDS011;10308;42.688;23.256;2024-02-21T03:49:59;9.40;;;8.60;;
20298;SDS011;10308;42.688;23.256;2024-02-21T03:52:27;9.43;;;8.65;;
20298;SDS011;10308;42.688;23.256;2024-02-21T03:54:53;9.70;;;8.90;;
20298;SDS011;10308;42.688;23.256;2024-02-21T03:57:22;9.70;;;8.90;;
20298;SDS011;10308;42.688;23.256;2024-02-21T03:59:50;9.07;;;8.38;;
20298;SDS011;10308;42.688;23.256;2024-02-21T04:02:18;10.20;;;9.20;;
20298;SDS011;10308;42.688;23.256;2024-02-21T04:04:45;9.73;;;8.98;;
20298;SDS011;10308;42.688;23.256;2024-02-21T04:07:14;10.20;;;9.40;;
20298;SDS011;10308;42.688;23.256;2024-02-21T04:09:41;9.52;;;8.82;;
20298;SDS011;10308;42.688;23.256;2024-02-21T04:12:08;9.52;;;8.63;;
20298;SDS011;10308;42.688;23.256;2024-02-21T04:14:36;10.00;;;9.20;;
20298;SDS011;10308;42.688;23.256;2024-02-21T04:17:05;9.82;;;9.02;;
20298;SDS011;10308;42.688;23.256;2024-02-21T04:19:32;9.15;;;8.45;;
20298;SDS011;10308;42.688;23.256;2024-02-21T04:22:01;9.50;;;8.70;;
20298;SDS011;10308;42.688;23.256;2024-02-21T04:24:32;9.75;;;8.82;;
20298;SDS011;10308;42.688;23.256;2024-02-21T04:27:00;10.25;;;9.40;;
20298;SDS011;10308;42.688;23.256;2024-02-21T04:29:27;10.25;;;9.45;;
20298;SDS011;10308;42.688;23.256;2024-02-21T04:31:56;10.68;;;9.77;;
20298;SDS011;10308;42.688;23.256;2024-02-21T04:34:25;10.07;;;9.27;;
20298;SDS011;10308;42.688;23.256;2024-02-21T04:36:53;10.70;;;9.80;;
20298;SDS011;10308;42.688;23.256;2024-02-21T04:39:20;10.45;;;9.60;;
20298;SDS011;10308;42.688;23.256;2024-02-21T04:41:54;10.68;;;9.77;;
20298;SDS011;10308;42.688;23.256;2024-02-21T04:44:21;10.80;;;9.90;;
20298;SDS011;10308;42.688;23.256;2024-02-21T04:46:49;11.15;;;10.15;;
20298;SDS011;10308;42.688;23.256;2024-02-21T04:49:16;10.82;;;9.93;;
20298;SDS011;10308;42.688;23.256;2024-02-21T04:51:44;10.13;;;9.32;;
20298;SDS011;10308;42.688;23.256;2024-02-21T04:54:11;10.38;;;9.48;;
20298;SDS011;10308;42.688;23.256;2024-02-21T04:56:39;10.20;;;9.30;;
20298;SDS011;10308;42.688;23.256;2024-02-21T04:59:08;10.98;;;10.07;;
20298;SDS011;10308;42.688;23.256;2024-02-21T05:01:36;10.95;;;10.02;;
20298;SDS011;10308;42.688;23.256;2024-02-21T05:04:03;10.23;;;9.32;;
20298;SDS011;10308;42.688;23.256;2024-02-21T05:06:32;9.70;;;8.90;;
20298;SDS011;10308;42.688;23.256;2024-02-21T05:09:03;9.68;;;8.95;;
20298;SDS011;10308;42.688;23.256;2024-02-21T05:11:32;9.77;;;8.88;;
20298;SDS011;10308;42.688;23.256;2024-02-21T05:13:59;9.75;;;8.95;;
20298;SDS011;10308;42.688;23.256;2024-02-21T05:16:28;10.18;;;9.23;;
20298;SDS011;10308;42.688;23.256;2024-02-21T05:18:55;11.27;;;10.23;;
20298;SDS011;10308;42.688;23.256;2024-02-21T05:21:24;11.07;;;10.07;;
20298;SDS011;10308;42.688;23.256;2024-02-21T05:23:52;11.20;;;10.30;;
20298;SDS011;10308;42.688;23.256;2024-02-21T05:26:21;11.95;;;10.75;;
20298;SDS011;10308;42.688;23.256;2024-02-21T05:28:48;12.18;;;11.18;;
20298;SDS011;10308;42.688;23.256;2024-02-21T05:31:18;11.95;;;10.95;;
20298;SDS011;10308;42.688;23.256;2024-02-21T05:33:46;12.32;;;11.23;;
20298;SDS011;10308;42.688;23.256;2024-02-21T05:36:17;11.85;;;10.85;;
20298;SDS011;10308;42.688;23.256;2024-02-21T05:38:46;11.75;;;10.85;;
20298;SDS011;10308;42.688;23.256;2024-02-21T05:41:14;11.73;;;10.73;;
20298;SDS011;10308;42.688;23.256;2024-02-21T05:43:44;11.43;;;10.43;;
20298;SDS011;10308;42.688;23.256;2024-02-21T05:46:13;10.60;;;9.73;;
20298;SDS011;10308;42.688;23.256;2024-02-21T05:48:40;11.68;;;10.77;;
20298;SDS011;10308;42.688;23.256;2024-02-21T05:51:08;11.60;;;10.70;;
20298;SDS011;10308;42.688;23.256;2024-02-21T05:53:35;10.73;;;9.82;;
20298;SDS011;10308;42.688;23.256;2024-02-21T05:56:09;10.55;;;9.65;;
20298;SDS011;10308;42.688;23.256;2024-02-21T05:58:39;11.00;;;10.10;;
20298;SDS011;10308;42.688;23.256;2024-02-21T06:01:07;11.15;;;10.25;;
20298;SDS011;10308;42.688;23.256;2024-02-21T06:03:34;10.75;;;9.85;;
20298;SDS011;10308;42.688;23.256;2024-02-21T06:06:02;11.60;;;10.48;;
20298;SDS011;10308;42.688;23.256;2024-02-21T06:08:34;10.75;;;9.95;;
20298;SDS011;10308;42.688;23.256;2024-02-21T06:11:02;11.18;;;10.27;;
20298;SDS011;10308;42.688;23.256;2024-02-21T06:13:29;11.25;;;10.27;;
20298;SDS011;10308;42.688;23.256;2024-02-21T06:15:58;11.80;;;10.70;;
20298;SDS011;10308;42.688;23.256;2024-02-21T06:18:25;11.30;;;10.40;;
20298;SDS011;10308;42.688;23.256;2024-02-21T06:20:53;12.50;;;11.45;;
20298;SDS011;10308;42.688;23.256;2024-02-21T06:23:22;11.80;;;10.80;;
20298;SDS011;10308;42.688;23.256;2024-02-21T06:25:52;11.60;;;10.60;;
20298;SDS011;10308;42.688;23.256;2024-02-21T06:28:19;12.30;;;11.30;;
20298;SDS011;10308;42.688;23.256;2024-02-21T06:30:48;11.70;;;10.70;;
20298;SDS011;10308;42.688;23.256;2024-02-21T06:33:15;11.77;;;10.77;;
20298;SDS011;10308;42.688;23.256;2024-02-21T06:35:50;12.40;;;11.30;;
20298;SDS011;10308;42.688;23.256;2024-02-21T06:38:20;12.63;;;11.52;;
20298;SDS011;10308;42.688;23.256;2024-02-21T06:40:49;11.93;;;10.93;;
20298;SDS011;10308;42.688;23.256;2024-02-21T06:43:21;11.80;;;10.80;;
20298;SDS011;10308;42.688;23.256;2024-02-21T06:45:50;11.70;;;10.70;;
20298;SDS011;10308;42.688;23.256;2024-02-21T06:48:20;12.82;;;11.77;;
20298;SDS011;10308;42.688;23.256;2024-02-21T06:50:48;12.63;;;11.52;;
20298;SDS011;10308;42.688;23.256;2024-02-21T06:53:16;12.38;;;11.27;;
20298;SDS011;10308;42.688;23.256;2024-02-21T06:55:44;13.15;;;11.95;;
20298;SDS011;10308;42.688;23.256;2024-02-21T08:00:34;13.05;;;11.95;;
20298;SDS011;10308;42.688;23.256;2024-02-21T08:03:03;14.18;;;12.93;;
20298;SDS011;10308;42.688;23.256;2024-02-21T08:05:30;14.18;;;12.98;;
20298;SDS011;10308;42.688;23.256;2024-02-21T08:08:02;13.25;;;12.15;;
20298;SDS011;10308;42.688;23.256;2024-02-21T08:10:30;13.18;;;11.85;;
20298;SDS011;10308;42.688;23.256;2024-02-21T08:12:58;13.10;;;12.00;;
20298;SDS011;10308;42.688;23.256;2024-02-21T08:15:25;13.57;;;12.18;;
20298;SDS011;10308;42.688;23.256;2024-02-21T08:18:01;12.77;;;11.68;;
20298;SDS011;10308;42.688;23.256;2024-02-21T08:20:29;14.10;;;12.90;;
20298;SDS011;10308;42.688;23.256;2024-02-21T08:22:57;13.15;;;11.95;;
20298;SDS011;10308;42.688;23.256;2024-02-21T08:25:24;12.73;;;11.52;;
20298;SDS011;10308;42.688;23.256;2024-02-21T08:27:54;12.40;;;11.30;;
20298;SDS011;10308;42.688;23.256;2024-02-21T08:30:24;11.98;;;10.88;;
20298;SDS011;10308;42.688;23.256;2024-02-21T08:32:53;12.40;;;11.25;;
20298;SDS011;10308;42.688;23.256;2024-02-21T08:35:22;14.98;;;13.52;;
20298;SDS011;10308;42.688;23.256;2024-02-21T08:37:50;14.45;;;12.95;;
20298;SDS011;10308;42.688;23.256;2024-02-21T08:40:18;14.52;;;13.13;;
20298;SDS011;10308;42.688;23.256;2024-02-21T08:42:47;13.52;;;12.35;;
20298;SDS011;10308;42.688;23.256;2024-02-21T08:45:15;14.35;;;13.05;;
20298;SDS011;10308;42.688;23.256;2024-02-21T08:47:46;17.40;;;14.18;;
20298;SDS011;10308;42.688;23.256;2024-02-21T08:50:14;15.07;;;13.57;;
20298;SDS011;10308;42.688;23.256;2024-02-21T08:52:43;13.55;;;12.27;;
20298;SDS011;10308;42.688;23.256;2024-02-21T08:55:10;13.32;;;12.13;;
20298;SDS011;10308;42.688;23.256;2024-02-21T08:57:39;12.20;;;11.10;;
20298;SDS011;10308;42.688;23.256;2024-02-21T09:00:06;14.52;;;12.65;;
20298;SDS011;10308;42.688;23.256;2024-02-21T09:02:37;13.65;;;12.10;;
20298;SDS011;10308;42.688;23.256;2024-02-21T09:05:08;13.18;;;11.88;;
20298;SDS011;10308;42.688;23.256;2024-02-21T09:07:36;16.10;;;13.43;;
20298;SDS011;10308;42.688;23.256;2024-02-21T09:10:05;13.90;;;12.55;;
20298;SDS011;10308;42.688;23.256;2024-02-21T09:12:35;12.73;;;11.60;;
20298;SDS011;10308;42.688;23.256;2024-02-21T09:15:02;12.60;;;11.50;;
20298;SDS011;10308;42.688;23.256;2024-02-21T09:17:31;13.20;;;12.00;;
20298;SDS011;10308;42.688;23.256;2024-02-21T09:19:57;12.02;;;10.93;;
20298;SDS011;10308;42.688;23.256;2024-02-21T09:22:30;12.02;;;10.93;;
20298;SDS011;10308;42.688;23.256;2024-02-21T09:25:00;14.05;;;12.75;;
20298;SDS011;10308;42.688;23.256;2024-02-21T09:27:32;13.82;;;12.50;;
20298;SDS011;10308;42.688;23.256;2024-02-21T09:29:59;12.82;;;11.73;;
20298;SDS011;10308;42.688;23.256;2024-02-21T09:32:28;13.85;;;12.52;;
20298;SDS011;10308;42.688;23.256;2024-02-21T09:34:55;12.55;;;11.35;;
20298;SDS011;10308;42.688;23.256;2024-02-21T09:37:26;12.35;;;11.15;;
20298;SDS011;10308;42.688;23.256;2024-02-21T09:39:53;14.63;;;13.13;;
20298;SDS011;10308;42.688;23.256;2024-02-21T09:42:21;13.25;;;12.05;;
20298;SDS011;10308;42.688;23.256;2024-02-21T09:44:56;13.40;;;12.10;;
20298;SDS011;10308;42.688;23.256;2024-02-21T09:47:28;15.70;;;14.20;;
20298;SDS011;10308;42.688;23.256;2024-02-21T09:50:01;11.70;;;10.73;;
20298;SDS011;10308;42.688;23.256;2024-02-21T09:52:31;11.23;;;10.32;;
20298;SDS011;10308;42.688;23.256;2024-02-21T09:54:59;11.38;;;10.45;;
20298;SDS011;10308;42.688;23.256;2024-02-21T09:57:31;10.70;;;9.70;;
20298;SDS011;10308;42.688;23.256;2024-02-21T11:02:09;6.50;;;6.00;;
20298;SDS011;10308;42.688;23.256;2024-02-21T11:04:37;5.43;;;5.03;;
20298;SDS011;10308;42.688;23.256;2024-02-21T11:07:05;6.55;;;6.00;;
20298;SDS011;10308;42.688;23.256;2024-02-21T11:09:33;6.50;;;5.90;;
20298;SDS011;10308;42.688;23.256;2024-02-21T11:12:02;5.85;;;5.43;;
20298;SDS011;10308;42.688;23.256;2024-02-21T11:14:30;7.15;;;6.45;;
20298;SDS011;10308;42.688;23.256;2024-02-21T11:17:02;6.53;;;5.93;;
20298;SDS011;10308;42.688;23.256;2024-02-21T11:19:34;6.20;;;5.70;;
20298;SDS011;10308;42.688;23.256;2024-02-21T11:22:02;5.18;;;4.78;;
20298;SDS011;10308;42.688;23.256;2024-02-21T11:24:41;6.22;;;5.70;;
20298;SDS011;10308;42.688;23.256;2024-02-21T11:27:11;5.32;;;4.93;;
20298;SDS011;10308;42.688;23.256;2024-02-21T11:29:42;5.45;;;5.05;;
20298;SDS011;10308;42.688;23.256;2024-02-21T11:32:11;4.90;;;4.50;;
20298;SDS011;10308;42.688;23.256;2024-02-21T11:34:42;5.00;;;4.60;;
20298;SDS011;10308;42.688;23.256;2024-02-21T11:37:28;5.00;;;4.60;;
20298;SDS011;10308;42.688;23.256;2024-02-21T11:39:59;5.00;;;4.60;;
20298;SDS011;10308;42.688;23.256;2024-02-21T11:42:26;4.95;;;4.55;;
20298;SDS011;10308;42.688;23.256;2024-02-21T11:44:54;4.65;;;4.35;;
20298;SDS011;10308;42.688;23.256;2024-02-21T11:47:24;5.03;;;4.63;;
20298;SDS011;10308;42.688;23.256;2024-02-21T11:49:53;4.97;;;4.57;;
20298;SDS011;10308;42.688;23.256;2024-02-21T11:52:24;5.40;;;5.00;;
20298;SDS011;10308;42.688;23.256;2024-02-21T11:54:53;5.40;;;5.00;;
20298;SDS011;10308;42.688;23.256;2024-02-21T11:57:23;5.88;;;5.38;;
20298;SDS011;10308;42.688;23.256;2024-02-21T11:59:53;5.80;;;5.20;;
20298;SDS011;10308;42.688;23.256;2024-02-21T12:02:21;5.38;;;4.90;;
20298;SDS011;10308;42.688;23.256;2024-02-21T12:04:49;5.47;;;4.97;;
20298;SDS011;10308;42.688;23.256;2024-02-21T12:07:22;5.47;;;5.07;;
20298;SDS011;10308;42.688;23.256;2024-02-21T12:09:50;5.65;;;5.25;;
20298;SDS011;10308;42.688;23.256;2024-02-21T12:12:19;5.97;;;5.40;;
20298;SDS011;10308;42.688;23.256;2024-02-21T12:14:54;5.80;;;5.35;;
20298;SDS011;10308;42.688;23.256;2024-02-21T12:17:24;5.32;;;4.82;;
20298;SDS011;10308;42.688;23.256;2024-02-21T12:19:53;5.47;;;5.07;;
20298;SDS011;10308;42.688;23.256;2024-02-21T12:22:22;5.95;;;5.45;;
20298;SDS011;10308;42.688;23.256;2024-02-21T12:24:50;5.90;;;5.30;;
20298;SDS011;10308;42.688;23.256;2024-02-21T12:27:18;5.80;;;5.30;;
20298;SDS011;10308;42.688;23.256;2024-02-21T12:29:45;5.05;;;4.60;;
20298;SDS011;10308;42.688;23.256;2024-02-21T12:32:14;5.65;;;5.15;;
20298;SDS011;10308;42.688;23.256;2024-02-21T12:34:41;6.50;;;5.72;;
20298;SDS011;10308;42.688;23.256;2024-02-21T12:37:10;5.47;;;5.00;;
20298;SDS011;10308;42.688;23.256;2024-02-21T12:39:39;5.35;;;4.85;;
20298;SDS011;10308;42.688;23.256;2024-02-21T12:42:08;5.72;;;5.22;;
20298;SDS011;10308;42.688;23.256;2024-02-21T12:44:37;5.00;;;4.50;;
20298;SDS011;10308;42.688;23.256;2024-02-21T12:47:05;5.10;;;4.70;;
20298;SDS011;10308;42.688;23.256;2024-02-21T12:49:33;4.78;;;3.90;;
20298;SDS011;10308;42.688;23.256;2024-02-21T12:52:01;5.40;;;4.82;;
20298;SDS011;10308;42.688;23.256;2024-02-21T12:54:30;5.63;;;5.15;;
20298;SDS011;10308;42.688;23.256;2024-02-21T12:57:02;6.47;;;5.50;;
20298;SDS011;10308;42.688;23.256;2024-02-21T12:59:29;6.53;;;5.80;;
20298;SDS011;10308;42.688;23.256;2024-02-21T13:01:57;7.15;;;5.80;;
20298;SDS011;10308;42.688;23.256;2024-02-21T13:04:24;7.18;;;6.47;;
20298;SDS011;10308;42.688;23.256;2024-02-21T13:06:52;6.07;;;5.57;;
20298;SDS011;10308;42.688;23.256;2024-02-21T13:09:22;6.47;;;5.80;;
20298;SDS011;10308;42.688;23.256;2024-02-21T13:11:50;6.80;;;5.90;;
20298;SDS011;10308;42.688;23.256;2024-02-21T13:14:19;7.82;;;7.10;;
20298;SDS011;10308;42.688;23.256;2024-02-21T13:16:49;8.25;;;7.55;;
20298;SDS011;10308;42.688;23.256;2024-02-21T13:19:16;8.38;;;7.60;;
20298;SDS011;10308;42.688;23.256;2024-02-21T13:21:45;7.45;;;6.80;;
20298;SDS011;10308;42.688;23.256;2024-02-21T13:24:14;7.40;;;6.68;;
20298;SDS011;10308;42.688;23.256;2024-02-21T13:26:41;6.55;;;6.05;;
20298;SDS011;10308;42.688;23.256;2024-02-21T13:29:08;6.55;;;5.95;;
20298;SDS011;10308;42.688;23.256;2024-02-21T13:31:41;6.72;;;6.10;;
20298;SDS011;10308;42.688;23.256;2024-02-21T13:34:08;6.00;;;5.40;;
20298;SDS011;10308;42.688;23.256;2024-02-21T13:36:37;5.38;;;4.97;;
20298;SDS011;10308;42.688;23.256;2024-02-21T13:39:03;5.05;;;4.65;;
20298;SDS011;10308;42.688;23.256;2024-02-21T13:41:33;5.57;;;5.18;;
20298;SDS011;10308;42.688;23.256;2024-02-21T13:44:00;6.00;;;5.50;;
20298;SDS011;10308;42.688;23.256;2024-02-21T13:46:30;6.15;;;5.55;;
20298;SDS011;10308;42.688;23.256;2024-02-21T13:49:04;5.82;;;5.30;;
20298;SDS011;10308;42.688;23.256;2024-02-21T13:51:33;5.30;;;4.80;;
20298;SDS011;10308;42.688;23.256;2024-02-21T13:54:02;5.57;;;5.18;;
20298;SDS011;10308;42.688;23.256;2024-02-21T13:56:31;6.07;;;5.65;;
20298;SDS011;10308;42.688;23.256;2024-02-21T13:59:00;6.45;;;5.93;;
20298;SDS011;10308;42.688;23.256;2024-02-21T14:01:27;6.10;;;5.60;;
20298;SDS011;10308;42.688;23.256;2024-02-21T14:03:54;5.53;;;5.10;;
20298;SDS011;10308;42.688;23.256;2024-02-21T14:06:23;5.63;;;5.22;;
20298;SDS011;10308;42.688;23.256;2024-02-21T14:08:52;5.65;;;5.15;;
20298;SDS011;10308;42.688;23.256;2024-02-21T14:11:21;6.03;;;5.43;;
20298;SDS011;10308;42.688;23.256;2024-02-21T14:13:48;5.40;;;4.95;;
20298;SDS011;10308;42.688;23.256;2024-02-21T14:16:16;5.68;;;5.13;;
20298;SDS011;10308;42.688;23.256;2024-02-21T14:18:43;5.68;;;5.00;;
20298;SDS011;10308;42.688;23.256;2024-02-21T14:21:12;6.00;;;5.40;;
20298;SDS011;10308;42.688;23.256;2024-02-21T14:23:41;6.00;;;5.50;;
20298;SDS011;10308;42.688;23.256;2024-02-21T14:26:09;5.22;;;4.72;;
20298;SDS011;10308;42.688;23.256;2024-02-21T14:28:37;5.55;;;5.05;;
20298;SDS011;10308;42.688;23.256;2024-02-21T14:31:05;6.72;;;6.05;;
20298;SDS011;10308;42.688;23.256;2024-02-21T14:33:35;6.07;;;5.38;;
20298;SDS011;10308;42.688;23.256;2024-02-21T14:36:04;6.03;;;5.53;;
20298;SDS011;10308;42.688;23.256;2024-02-21T14:38:34;5.78;;;5.28;;
20298;SDS011;10308;42.688;23.256;2024-02-21T14:41:04;6.53;;;5.90;;
20298;SDS011;10308;42.688;23.256;2024-02-21T14:43:31;5.63;;;5.13;;
20298;SDS011;10308;42.688;23.256;2024-02-21T14:46:01;6.70;;;6.00;;
20298;SDS011;10308;42.688;23.256;2024-02-21T14:48:29;7.05;;;5.57;;
20298;SDS011;10308;42.688;23.256;2024-02-21T14:51:00;5.85;;;5.35;;
20298;SDS011;10308;42.688;23.256;2024-02-21T14:53:27;5.88;;;5.38;;
20298;SDS011;10308;42.688;23.256;2024-02-21T14:55:55;5.95;;;5.43;;
20298;SDS011;10308;42.688;23.256;2024-02-21T14:58:24;5.70;;;5.20;;
20298;SDS011;10308;42.688;23.256;2024-02-21T15:00:53;5.65;;;5.07;;
20298;SDS011;10308;42.688;23.256;2024-02-21T15:03:20;5.93;;;5.43;;
20298;SDS011;10308;42.688;23.256;2024-02-21T15:05:49;6.07;;;5.57;;
20298;SDS011;10308;42.688;23.256;2024-02-21T15:08:16;6.55;;;5.95;;
20298;SDS011;10308;42.688;23.256;2024-02-21T15:10:44;6.47;;;5.90;;
20298;SDS011;10308;42.688;23.256;2024-02-21T15:13:11;6.88;;;6.28;;
20298;SDS011;10308;42.688;23.256;2024-02-21T15:15:42;6.80;;;6.00;;
20298;SDS011;10308;42.688;23.256;2024-02-21T15:18:09;6.32;;;5.82;;
20298;SDS011;10308;42.688;23.256;2024-02-21T15:20:38;6.97;;;6.15;;
20298;SDS011;10308;42.688;23.256;2024-02-21T15:23:06;6.38;;;5.78;;
20298;SDS011;10308;42.688;23.256;2024-02-21T15:25:35;6.80;;;6.20;;
20298;SDS011;10308;42.688;23.256;2024-02-21T15:28:02;7.35;;;6.63;;
20298;SDS011;10308;42.688;23.256;2024-02-21T15:30:33;7.07;;;6.30;;
20298;SDS011;10308;42.688;23.256;2024-02-21T15:33:01;6.90;;;6.30;;
20298;SDS011;10308;42.688;23.256;2024-02-21T15:35:29;6.47;;;5.95;;
20298;SDS011;10308;42.688;23.256;2024-02-21T15:37:57;7.00;;;6.30;;
20298;SDS011;10308;42.688;23.256;2024-02-21T15:40:25;6.60;;;5.95;;
20298;SDS011;10308;42.688;23.256;2024-02-21T15:42:52;7.13;;;6.53;;
20298;SDS011;10308;42.688;23.256;2024-02-21T15:45:19;7.43;;;6.30;;
20298;SDS011;10308;42.688;23.256;2024-02-21T15:47:46;7.13;;;6.43;;
20298;SDS011;10308;42.688;23.256;2024-02-21T15:50:15;8.43;;;6.57;;
20298;SDS011;10308;42.688;23.256;2024-02-21T15:52:42;7.82;;;7.13;;
20298;SDS011;10308;42.688;23.256;2024-02-21T15:55:10;7.63;;;7.03;;
20298;SDS011;10308;42.688;23.256;2024-02-21T15:57:37;8.38;;;7.28;;
20298;SDS011;10308;42.688;23.256;2024-02-21T16:00:06;9.32;;;8.30;;
20298;SDS011;10308;42.688;23.256;2024-02-21T16:02:38;8.77;;;8.07;;
20298;SDS011;10308;42.688;23.256;2024-02-21T16:05:08;10.13;;;8.77;;
20298;SDS011;10308;42.688;23.256;2024-02-21T16:07:37;9.65;;;8.57;;
20298;SDS011;10308;42.688;23.256;2024-02-21T16:10:06;9.65;;;8.50;;
20298;SDS011;10308;42.688;23.256;2024-02-21T16:12:33;10.27;;;9.38;;
20298;SDS011;10308;42.688;23.256;2024-02-21T16:15:06;9.88;;;8.88;;
20298;SDS011;10308;42.688;23.256;2024-02-21T16:17:34;9.65;;;8.65;;
20298;SDS011;10308;42.688;23.256;2024-02-21T16:20:05;12.15;;;9.32;;
20298;SDS011;10308;42.688;23.256;2024-02-21T16:22:38;10.02;;;9.02;;
20298;SDS011;10308;42.688;23.256;2024-02-21T16:25:06;10.70;;;9.70;;
20298;SDS011;10308;42.688;23.256;2024-02-21T16:27:33;11.02;;;9.93;;
20298;SDS011;10308;42.688;23.256;2024-02-21T16:30:02;11.02;;;10.02;;
20298;SDS011;10308;42.688;23.256;2024-02-21T16:32:30;12.10;;;10.68;;
20298;SDS011;10308;42.688;23.256;2024-02-21T16:35:01;11.48;;;10.23;;
20298;SDS011;10308;42.688;23.256;2024-02-21T16:37:29;11.35;;;10.00;;
20298;SDS011;10308;42.688;23.256;2024-02-21T16:39:59;13.02;;;9.70;;
20298;SDS011;10308;42.688;23.256;2024-02-21T16:42:26;10.95;;;9.57;;